Time;durP1;ratioP1;P1;durP2;ratioP2;P2;SDS_P1;SDS_P2;PMS_P1;PMS_P2;Temp;Humidity;BMP_temperature;BMP_pressure;BME280_temperature;BME280_humidity;BME280_pressure;Samples;Min_cycle;Max_cycle;Signal;HPM_P1;HPM_P2
2022/08/29 00:00:59;;;;;;;;;;;20.30;71.00;;;;;;5053454;28;19909;-62
2022/08/29 00:03:25;;;;;;;;;;;20.20;71.00;;;;;;5053083;28;20365;-62
2022/08/29 00:05:50;;;;;;;;;;;20.20;71.00;;;;;;5053210;28;19917;-62
2022/08/29 00:08:16;;;;;;;;;;;20.20;70.90;;;;;;5053361;28;19944;-62
2022/08/29 00:10:41;;;;;;;;;;;20.20;71.00;;;;;;5052755;28;19909;-61
2022/08/29 00:13:08;;;;;;;;;;;20.20;71.20;;;;;;5053033;28;20320;-60
2022/08/29 00:15:34;;;;;;;;;;;20.20;71.20;;;;;;5053472;28;19955;-61
2022/08/29 00:18:00;;;;;;;;;;;20.20;71.30;;;;;;5053036;28;19909;-61
2022/08/29 00:20:26;;;;;;;;;;;20.10;71.20;;;;;;5052741;28;19916;-62
2022/08/29 00:22:52;;;;;;;;;;;20.10;71.20;;;;;;5052737;28;19944;-62
2022/08/29 00:25:18;;;;;;;;;;;20.10;71.30;;;;;;5052300;28;19959;-60
2022/08/29 00:27:43;;;;;;;;;;;20.10;71.40;;;;;;5052485;28;19917;-61
2022/08/29 00:30:09;;;;;;;;;;;20.10;71.50;;;;;;5052822;28;19909;-61
2022/08/29 00:32:35;;;;;;;;;;;20.00;71.50;;;;;;5052733;28;19916;-62
2022/08/29 00:35:01;;;;;;;;;;;20.00;71.40;;;;;;5053292;28;19963;-61
2022/08/29 00:37:27;;;;;;;;;;;20.00;71.60;;;;;;5048431;28;19963;-61
2022/08/29 00:39:52;;;;;;;;;;;20.00;71.70;;;;;;5048701;28;19956;-61
2022/08/29 00:42:18;;;;;;;;;;;19.90;71.60;;;;;;5052259;28;19912;-62
2022/08/29 00:44:44;;;;;;;;;;;19.90;71.60;;;;;;5052946;28;19917;-61
2022/08/29 00:47:11;;;;;;;;;;;19.90;71.70;;;;;;5052250;28;19992;-59
2022/08/29 00:49:41;;;;;;;;;;;19.90;71.70;;;;;;5052436;28;20285;-59
2022/08/29 00:52:10;;;;;;;;;;;19.90;71.80;;;;;;5052047;28;20301;-60
2022/08/29 00:54:37;;;;;;;;;;;19.90;71.80;;;;;;5052056;28;19921;-60
2022/08/29 00:57:03;;;;;;;;;;;19.90;71.90;;;;;;5052116;28;20422;-61
2022/08/29 00:59:36;;;;;;;;;;;19.90;71.90;;;;;;5052165;28;19944;-62
2022/08/29 01:02:03;;;;;;;;;;;19.90;72.00;;;;;;5052517;28;20431;-62
2022/08/29 01:04:29;;;;;;;;;;;19.80;71.90;;;;;;5052080;28;19924;-61
2022/08/29 01:06:55;;;;;;;;;;;19.90;72.10;;;;;;5051994;28;20285;-61
2022/08/29 01:09:21;;;;;;;;;;;19.80;72.00;;;;;;5051444;28;19916;-60
2022/08/29 01:14:31;;;;;;;;;;;19.80;72.20;;;;;;5052189;28;20389;-62
2022/08/29 01:16:57;;;;;;;;;;;19.80;72.20;;;;;;5051773;28;19913;-62
2022/08/29 01:19:23;;;;;;;;;;;19.80;72.20;;;;;;5051794;28;19913;-61
2022/08/29 01:22:06;;;;;;;;;;;19.80;72.30;;;;;;5052034;28;19913;-60
2022/08/29 01:24:34;;;;;;;;;;;19.80;72.30;;;;;;5044819;28;19916;-62
2022/08/29 01:27:00;;;;;;;;;;;19.80;72.40;;;;;;5051924;28;19913;-62
2022/08/29 01:29:25;;;;;;;;;;;19.80;72.30;;;;;;5051555;28;19924;-62
2022/08/29 01:31:51;;;;;;;;;;;19.80;72.30;;;;;;5051529;28;19909;-62
2022/08/29 01:34:17;;;;;;;;;;;19.70;72.30;;;;;;5051742;28;19909;-63
2022/08/29 01:36:43;;;;;;;;;;;19.70;72.50;;;;;;5051576;28;19913;-63
2022/08/29 01:39:09;;;;;;;;;;;19.70;72.50;;;;;;5051369;28;19963;-60
2022/08/29 01:41:34;;;;;;;;;;;19.70;72.50;;;;;;5051378;28;20371;-61
2022/08/29 01:44:00;;;;;;;;;;;19.70;72.50;;;;;;5051146;28;19909;-60
2022/08/29 01:46:28;;;;;;;;;;;19.70;72.50;;;;;;5051723;28;19959;-61
2022/08/29 01:48:54;;;;;;;;;;;19.60;73.20;;;;;;5051391;28;20368;-61
2022/08/29 01:51:20;;;;;;;;;;;19.60;72.50;;;;;;5050878;28;20401;-60
2022/08/29 01:53:45;;;;;;;;;;;19.60;72.70;;;;;;5050793;28;20019;-62
2022/08/29 01:56:15;;;;;;;;;;;19.60;72.70;;;;;;5051376;28;19912;-61
2022/08/29 01:58:41;;;;;;;;;;;19.60;72.70;;;;;;5051182;28;19919;-61
2022/08/29 02:01:08;;;;;;;;;;;19.60;72.70;;;;;;5051326;28;19935;-61
2022/08/29 02:03:33;;;;;;;;;;;19.60;72.70;;;;;;5051326;28;20501;-61
2022/08/29 02:06:00;;;;;;;;;;;19.50;72.70;;;;;;5050698;28;20377;-62
2022/08/29 02:08:26;;;;;;;;;;;19.50;72.80;;;;;;5050725;28;19923;-61
2022/08/29 02:10:51;;;;;;;;;;;19.50;72.70;;;;;;5050920;28;19909;-62
2022/08/29 02:13:17;;;;;;;;;;;19.50;72.80;;;;;;5050889;28;19915;-63
2022/08/29 02:15:42;;;;;;;;;;;19.50;72.80;;;;;;5051054;28;19917;-64
2022/08/29 02:18:08;;;;;;;;;;;19.50;72.90;;;;;;5051291;28;20427;-64
2022/08/29 02:20:33;;;;;;;;;;;19.50;72.90;;;;;;5050659;28;20007;-63
2022/08/29 02:22:59;;;;;;;;;;;19.50;72.90;;;;;;5050524;28;19931;-63
2022/08/29 02:25:40;;;;;;;;;;;19.50;72.90;;;;;;5051048;28;19970;-63
2022/08/29 02:28:06;;;;;;;;;;;19.50;72.90;;;;;;5045228;28;19909;-64
2022/08/29 02:30:31;;;;;;;;;;;19.50;72.90;;;;;;5051242;28;19916;-63
2022/08/29 02:32:57;;;;;;;;;;;19.50;72.90;;;;;;5050425;28;19916;-62
2022/08/29 02:35:22;;;;;;;;;;;19.40;72.80;;;;;;5050434;28;19982;-64
2022/08/29 02:37:48;;;;;;;;;;;19.40;72.90;;;;;;5044503;28;19913;-63
2022/08/29 02:40:13;;;;;;;;;;;19.40;73.00;;;;;;5050773;28;20020;-63
2022/08/29 02:42:39;;;;;;;;;;;19.40;73.00;;;;;;5050769;28;19916;-61
2022/08/29 02:45:05;;;;;;;;;;;19.40;73.00;;;;;;5050228;28;19925;-62
2022/08/29 02:47:35;;;;;;;;;;;19.40;73.00;;;;;;5050460;28;19909;-60
2022/08/29 02:50:03;;;;;;;;;;;19.40;73.20;;;;;;5050281;28;20000;-59
2022/08/29 02:52:29;;;;;;;;;;;19.40;73.20;;;;;;5050271;28;19979;-63
2022/08/29 02:54:55;;;;;;;;;;;19.40;73.20;;;;;;5050456;28;19982;-63
2022/08/29 02:57:20;;;;;;;;;;;19.40;73.10;;;;;;5051118;28;20358;-63
2022/08/29 02:59:46;;;;;;;;;;;19.30;73.10;;;;;;5050518;28;19909;-62
2022/08/29 03:02:11;;;;;;;;;;;19.20;73.20;;;;;;5030874;28;19910;-61
2022/08/29 03:04:37;;;;;;;;;;;19.20;73.20;;;;;;5051359;28;19943;-62
2022/08/29 03:07:04;;;;;;;;;;;19.20;73.50;;;;;;5054397;28;19955;-61
2022/08/29 03:09:30;;;;;;;;;;;19.20;73.50;;;;;;5054072;28;19909;-61
2022/08/29 03:11:55;;;;;;;;;;;19.10;73.60;;;;;;5054506;28;19931;-61
2022/08/29 03:14:21;;;;;;;;;;;19.10;73.60;;;;;;5053821;28;20373;-61
2022/08/29 03:16:47;;;;;;;;;;;19.00;73.70;;;;;;5054631;28;19982;-60
2022/08/29 03:19:12;;;;;;;;;;;19.10;74.70;;;;;;5053718;28;20388;-61
2022/08/29 03:21:38;;;;;;;;;;;19.00;73.90;;;;;;5054250;28;19913;-61
2022/08/29 03:24:03;;;;;;;;;;;19.10;73.90;;;;;;5053943;28;19912;-61
2022/08/29 03:26:29;;;;;;;;;;;19.00;74.00;;;;;;5054369;28;19962;-60
2022/08/29 03:28:54;;;;;;;;;;;19.00;74.00;;;;;;5029277;28;19920;-61
2022/08/29 03:31:20;;;;;;;;;;;19.00;74.20;;;;;;5053981;28;19936;-59
2022/08/29 03:33:46;;;;;;;;;;;18.90;74.10;;;;;;5052861;28;19963;-59
2022/08/29 03:36:12;;;;;;;;;;;18.80;74.20;;;;;;5053777;28;19909;-61
2022/08/29 03:38:37;;;;;;;;;;;18.90;74.50;;;;;;5029223;28;19921;-61
2022/08/29 03:41:06;;;;;;;;;;;18.80;74.50;;;;;;5050235;28;19916;-61
2022/08/29 03:43:32;;;;;;;;;;;18.80;74.50;;;;;;5053864;28;19913;-59
2022/08/29 03:45:57;;;;;;;;;;;18.80;74.50;;;;;;5053697;28;19917;-60
2022/08/29 03:48:23;;;;;;;;;;;18.80;74.70;;;;;;5053152;28;19912;-59
2022/08/29 03:50:48;;;;;;;;;;;18.80;74.60;;;;;;5053723;28;20452;-62
2022/08/29 03:53:14;;;;;;;;;;;18.70;74.50;;;;;;5052655;28;19921;-61
2022/08/29 03:55:39;;;;;;;;;;;18.80;74.90;;;;;;5053367;28;20320;-61
2022/08/29 03:58:05;;;;;;;;;;;18.80;74.80;;;;;;5035467;28;19959;-61
2022/08/29 04:00:31;;;;;;;;;;;18.70;75.00;;;;;;5053219;28;19912;-61
2022/08/29 04:02:57;;;;;;;;;;;18.70;75.00;;;;;;5052416;28;20369;-57
2022/08/29 04:05:23;;;;;;;;;;;18.60;75.30;;;;;;5053503;28;19920;-61
2022/08/29 04:07:48;;;;;;;;;;;18.60;75.20;;;;;;5053216;28;20361;-61
2022/08/29 04:10:19;;;;;;;;;;;18.60;75.40;;;;;;5053149;28;19940;-59
2022/08/29 04:12:44;;;;;;;;;;;18.50;75.40;;;;;;5053471;28;19995;-61
2022/08/29 04:15:10;;;;;;;;;;;18.50;75.50;;;;;;5053095;28;19996;-61
2022/08/29 04:17:36;;;;;;;;;;;18.50;75.70;;;;;;5052577;28;20367;-61
2022/08/29 04:20:03;;;;;;;;;;;18.50;75.50;;;;;;5053244;28;19970;-62
2022/08/29 04:22:29;;;;;;;;;;;18.50;75.90;;;;;;5052830;28;19962;-61
2022/08/29 04:24:54;;;;;;;;;;;18.50;75.90;;;;;;5052840;28;20608;-59
2022/08/29 04:27:20;;;;;;;;;;;18.50;76.10;;;;;;5052381;28;20261;-61
2022/08/29 04:29:47;;;;;;;;;;;18.50;76.10;;;;;;5052352;28;19913;-62
2022/08/29 04:32:13;;;;;;;;;;;18.40;76.10;;;;;;5052776;28;19955;-61
2022/08/29 04:34:39;;;;;;;;;;;18.40;76.20;;;;;;5052505;28;19936;-61
2022/08/29 04:37:04;;;;;;;;;;;18.40;76.40;;;;;;5052484;28;19952;-61
2022/08/29 04:39:30;;;;;;;;;;;18.30;76.20;;;;;;5052094;28;19913;-60
2022/08/29 04:41:55;;;;;;;;;;;18.30;76.50;;;;;;5052167;28;19959;-61
2022/08/29 04:44:21;;;;;;;;;;;18.40;76.40;;;;;;5052353;28;19913;-62
2022/08/29 04:46:46;;;;;;;;;;;18.40;76.30;;;;;;5051652;28;19917;-62
2022/08/29 04:49:12;;;;;;;;;;;18.40;76.40;;;;;;5052476;28;19916;-61
2022/08/29 04:51:37;;;;;;;;;;;18.40;76.40;;;;;;5052746;28;19917;-61
2022/08/29 04:54:03;;;;;;;;;;;18.30;77.20;;;;;;5051640;28;19924;-61
2022/08/29 04:56:29;;;;;;;;;;;18.30;76.70;;;;;;5051912;28;19909;-62
2022/08/29 04:58:54;;;;;;;;;;;18.30;76.80;;;;;;5052481;28;19924;-59
2022/08/29 05:01:21;;;;;;;;;;;18.20;76.90;;;;;;5051506;28;20000;-61
2022/08/29 05:03:47;;;;;;;;;;;18.20;77.00;;;;;;5051737;28;19908;-61
2022/08/29 05:06:14;;;;;;;;;;;18.20;76.90;;;;;;5051777;28;19923;-62
2022/08/29 05:08:41;;;;;;;;;;;18.20;77.10;;;;;;5034099;28;19909;-61
2022/08/29 05:11:09;;;;;;;;;;;18.20;77.00;;;;;;5051524;28;19916;-61
2022/08/29 05:13:34;;;;;;;;;;;18.20;77.10;;;;;;5052276;28;19917;-61
2022/08/29 05:16:07;;;;;;;;;;;18.20;77.40;;;;;;5051330;28;20284;-61
2022/08/29 05:18:33;;;;;;;;;;;18.20;77.20;;;;;;5051222;28;20007;-60
2022/08/29 05:20:58;;;;;;;;;;;18.20;77.30;;;;;;5051862;28;19955;-59
2022/08/29 05:23:24;;;;;;;;;;;18.20;77.30;;;;;;5051012;28;19917;-60
2022/08/29 05:25:57;;;;;;;;;;;18.20;77.40;;;;;;5051573;28;19916;-59
2022/08/29 05:28:22;;;;;;;;;;;18.20;77.40;;;;;;5033793;28;20288;-61
2022/08/29 05:30:48;;;;;;;;;;;18.30;77.40;;;;;;5051307;28;19909;-61
2022/08/29 05:33:13;;;;;;;;;;;18.20;77.40;;;;;;5051516;28;19912;-59
2022/08/29 05:35:39;;;;;;;;;;;18.20;77.40;;;;;;5051622;28;19944;-59
2022/08/29 05:38:04;;;;;;;;;;;18.20;77.50;;;;;;5051242;28;20334;-60
2022/08/29 05:40:30;;;;;;;;;;;18.20;77.50;;;;;;5051744;28;19913;-61
2022/08/29 05:42:55;;;;;;;;;;;18.20;77.50;;;;;;5051097;28;19915;-61
2022/08/29 05:45:21;;;;;;;;;;;18.20;77.60;;;;;;5050921;28;19926;-61
2022/08/29 05:47:46;;;;;;;;;;;18.20;77.70;;;;;;5051191;28;19931;-61
2022/08/29 05:50:15;;;;;;;;;;;18.30;77.70;;;;;;5051204;28;19913;-59
2022/08/29 05:52:41;;;;;;;;;;;18.30;77.80;;;;;;5050908;28;19942;-60
2022/08/29 05:55:07;;;;;;;;;;;18.30;77.80;;;;;;5050742;28;19917;-60
2022/08/29 05:57:32;;;;;;;;;;;18.20;77.90;;;;;;5050789;28;20357;-60
2022/08/29 05:59:58;;;;;;;;;;;18.20;77.80;;;;;;5050904;28;20007;-60
2022/08/29 06:02:24;;;;;;;;;;;18.30;78.00;;;;;;5051087;28;20389;-61
2022/08/29 06:04:50;;;;;;;;;;;18.30;78.10;;;;;;5051198;28;20016;-61
2022/08/29 06:07:15;;;;;;;;;;;18.30;78.10;;;;;;5050637;28;19909;-61
2022/08/29 06:09:41;;;;;;;;;;;18.40;78.10;;;;;;5051361;28;19913;-60
2022/08/29 06:12:07;;;;;;;;;;;18.40;77.90;;;;;;5050588;28;19909;-59
2022/08/29 06:14:33;;;;;;;;;;;18.40;77.90;;;;;;5050228;28;20423;-60
2022/08/29 06:16:59;;;;;;;;;;;18.40;77.80;;;;;;5050804;28;19944;-60
2022/08/29 06:19:24;;;;;;;;;;;18.40;77.90;;;;;;5051184;28;20273;-60
2022/08/29 06:21:53;;;;;;;;;;;18.50;78.00;;;;;;5050662;28;20388;-60
2022/08/29 06:24:19;;;;;;;;;;;18.50;78.00;;;;;;5050691;28;19908;-60
2022/08/29 06:26:44;;;;;;;;;;;18.50;77.90;;;;;;5050488;28;20266;-62
2022/08/29 06:29:10;;;;;;;;;;;18.50;77.90;;;;;;5050121;28;19920;-61
2022/08/29 06:31:35;;;;;;;;;;;18.50;77.90;;;;;;5050599;28;19909;-62
2022/08/29 06:34:02;;;;;;;;;;;18.50;78.00;;;;;;5049098;28;19959;-59
2022/08/29 06:36:28;;;;;;;;;;;18.50;78.10;;;;;;5052382;28;20400;-61
2022/08/29 06:38:54;;;;;;;;;;;18.50;78.10;;;;;;5053401;28;19968;-60
2022/08/29 06:41:20;;;;;;;;;;;18.50;78.20;;;;;;5054682;28;19920;-59
2022/08/29 06:43:45;;;;;;;;;;;18.60;78.50;;;;;;5048892;28;19913;-56
2022/08/29 06:46:19;;;;;;;;;;;18.60;78.40;;;;;;5050936;28;19925;-57
2022/08/29 06:48:45;;;;;;;;;;;18.70;78.40;;;;;;5053902;28;19927;-59
2022/08/29 06:51:10;;;;;;;;;;;18.70;78.50;;;;;;5053971;28;19909;-58
2022/08/29 06:53:36;;;;;;;;;;;18.80;78.60;;;;;;5053340;28;19928;-58
2022/08/29 06:56:02;;;;;;;;;;;18.80;78.50;;;;;;5052679;28;19912;-59
2022/08/29 06:58:28;;;;;;;;;;;18.90;78.40;;;;;;5050266;28;19916;-59
2022/08/29 07:00:53;;;;;;;;;;;18.90;78.30;;;;;;5051719;28;19913;-59
2022/08/29 07:03:20;;;;;;;;;;;18.90;78.40;;;;;;5052000;28;20418;-59
2022/08/29 07:05:49;;;;;;;;;;;18.90;78.20;;;;;;5053655;28;19920;-59
2022/08/29 07:08:15;;;;;;;;;;;18.90;78.10;;;;;;5044382;28;20472;-58
2022/08/29 07:10:43;;;;;;;;;;;18.90;78.10;;;;;;5049732;28;19951;-58
2022/08/29 07:13:08;;;;;;;;;;;18.90;78.10;;;;;;5051880;28;19920;-57
2022/08/29 07:15:34;;;;;;;;;;;19.00;78.20;;;;;;5052413;28;19963;-59
2022/08/29 07:17:59;;;;;;;;;;;19.00;78.20;;;;;;5050296;28;19949;-58
2022/08/29 07:20:25;;;;;;;;;;;19.00;78.20;;;;;;5048281;28;19925;-59
2022/08/29 07:22:51;;;;;;;;;;;19.00;78.00;;;;;;5052312;28;20373;-58
2022/08/29 07:25:17;;;;;;;;;;;19.00;78.10;;;;;;5051806;28;19912;-55
2022/08/29 07:27:42;;;;;;;;;;;19.00;78.10;;;;;;5051899;28;20676;-58
2022/08/29 07:30:08;;;;;;;;;;;19.10;78.00;;;;;;5051920;28;19913;-55
2022/08/29 07:32:34;;;;;;;;;;;19.10;77.90;;;;;;5051888;28;19909;-57
2022/08/29 07:34:59;;;;;;;;;;;19.10;77.90;;;;;;5051712;28;19912;-58
2022/08/29 07:37:25;;;;;;;;;;;19.10;77.90;;;;;;5051716;28;19931;-58
2022/08/29 07:39:50;;;;;;;;;;;19.10;77.80;;;;;;5050885;28;19909;-55
2022/08/29 07:42:16;;;;;;;;;;;19.10;77.80;;;;;;5051602;28;19909;-57
2022/08/29 07:44:41;;;;;;;;;;;19.20;77.90;;;;;;5051524;28;20051;-58
2022/08/29 07:47:07;;;;;;;;;;;19.20;77.70;;;;;;5045195;28;20301;-58
2022/08/29 07:49:32;;;;;;;;;;;19.20;77.60;;;;;;5049772;28;19991;-57
2022/08/29 07:51:58;;;;;;;;;;;19.20;77.60;;;;;;5051767;28;19958;-57
2022/08/29 07:54:24;;;;;;;;;;;19.20;77.50;;;;;;5050776;28;19925;-58
2022/08/29 07:56:50;;;;;;;;;;;19.20;77.50;;;;;;5051230;28;19972;-59
2022/08/29 07:59:17;;;;;;;;;;;19.30;77.60;;;;;;5051701;28;19908;-58
2022/08/29 08:01:42;;;;;;;;;;;19.40;77.80;;;;;;5051105;28;19913;-56
2022/08/29 08:04:08;;;;;;;;;;;19.40;77.70;;;;;;5051127;28;20266;-55
2022/08/29 08:06:35;;;;;;;;;;;19.50;77.70;;;;;;5051142;28;20003;-53
2022/08/29 08:09:01;;;;;;;;;;;19.60;77.80;;;;;;5032752;28;19909;-58
2022/08/29 08:11:26;;;;;;;;;;;19.70;77.50;;;;;;5051712;28;20007;-56
2022/08/29 08:13:53;;;;;;;;;;;19.70;77.20;;;;;;5051509;28;19995;-56
2022/08/29 08:16:20;;;;;;;;;;;19.70;77.20;;;;;;5051665;28;20384;-59
2022/08/29 08:18:45;;;;;;;;;;;19.70;77.00;;;;;;5045448;28;20340;-57
2022/08/29 08:21:11;;;;;;;;;;;19.80;77.00;;;;;;5051803;28;19912;-58
2022/08/29 08:23:37;;;;;;;;;;;19.80;77.10;;;;;;5051010;28;20293;-56
2022/08/29 08:26:03;;;;;;;;;;;19.80;77.10;;;;;;5051620;28;19917;-56
2022/08/29 08:28:29;;;;;;;;;;;19.90;76.90;;;;;;5051314;28;19920;-53
2022/08/29 08:30:56;;;;;;;;;;;19.90;77.10;;;;;;5051409;28;19913;-57
2022/08/29 08:33:21;;;;;;;;;;;19.90;77.00;;;;;;5044905;28;19919;-57
2022/08/29 08:35:47;;;;;;;;;;;;;;;;;;5048399;28;19913;-56
2022/08/29 08:38:15;;;;;;;;;;;;;;;;;;5050535;28;19915;-55
2022/08/29 08:40:41;;;;;;;;;;;;;;;;;;5050992;28;19924;-51
2022/08/29 08:43:07;;;;;;;;;;;;;;;;;;5050489;28;19913;-57
2022/08/29 08:45:33;;;;;;;;;;;;;;;;;;5051116;28;20480;-50
2022/08/29 08:47:59;;;;;;;;;;;;;;;;;;5051259;28;20008;-56
2022/08/29 08:50:25;;;;;;;;;;;;;;;;;;5050780;28;20015;-52
2022/08/29 08:52:51;;;;;;;;;;;;;;;;;;5050207;28;19996;-57
2022/08/29 08:55:17;;;;;;;;;;;;;;;;;;5050718;28;19917;-51
2022/08/29 08:57:43;;;;;;;;;;;;;;;;;;5050956;28;20366;-53
2022/08/29 09:00:12;;;;;;;;;;;;;;;;;;5050292;28;19940;-57
2022/08/29 09:02:38;;;;;;;;;;;;;;;;;;5050916;28;20623;-55
2022/08/29 09:05:04;;;;;;;;;;;;;;;;;;5043603;28;19917;-56
2022/08/29 09:07:30;;;;;;;;;;;;;;;;;;5049668;28;19924;-57
2022/08/29 09:09:56;;;;;;;;;;;;;;;;;;5050898;28;19955;-57
2022/08/29 09:12:22;;;;;;;;;;;;;;;;;;5050310;28;19916;-50
2022/08/29 09:14:48;;;;;;;;;;;;;;;;;;5050548;28;19909;-56
2022/08/29 09:17:14;;;;;;;;;;;;;;;;;;5049969;28;20028;-54
2022/08/29 09:19:40;;;;;;;;;;;;;;;;;;5049580;28;19913;-55
2022/08/29 09:22:06;;;;;;;;;;;;;;;;;;5048827;28;19913;-57
2022/08/29 09:24:32;;;;;;;;;;;;;;;;;;5049757;28;19924;-53
2022/08/29 09:26:58;;;;;;;;;;;;;;;;;;5048499;28;19966;-56
2022/08/29 09:29:24;;;;;;;;;;;;;;;;;;5049297;28;19916;-53
2022/08/29 09:31:50;;;;;;;;;;;;;;;;;;5049483;28;19913;-50
2022/08/29 09:34:16;;;;;;;;;;;;;;;;;;5049819;28;19983;-55
2022/08/29 09:36:42;;;;;;;;;;;;;;;;;;5049517;28;20356;-57
2022/08/29 09:39:08;;;;;;;;;;;;;;;;;;5047319;28;19913;-54
2022/08/29 09:41:33;;;;;;;;;;;;;;;;;;5049871;28;20443;-53
2022/08/29 09:43:59;;;;;;;;;;;;;;;;;;5049664;28;19992;-52
2022/08/29 09:46:25;;;;;;;;;;;;;;;;;;5045918;28;20369;-55
2022/08/29 09:48:51;;;;;;;;;;;;;;;;;;5049337;28;19966;-56
2022/08/29 09:51:20;;;;;;;;;;;;;;;;;;5047273;28;20411;-55
2022/08/29 09:53:46;;;;;;;;;;;;;;;;;;5049141;28;19950;-56
2022/08/29 09:56:12;;;;;;;;;;;;;;;;;;5049382;28;19999;-58
2022/08/29 09:58:38;;;;;;;;;;;;;;;;;;5048829;28;19913;-56
2022/08/29 10:01:04;;;;;;;;;;;;;;;;;;5049707;28;19912;-52
2022/08/29 10:03:30;;;;;;;;;;;;;;;;;;5046141;28;19916;-53
2022/08/29 10:05:55;;;;;;;;;;;;;;;;;;5030810;28;20015;-54
2022/08/29 10:08:21;;;;;;;;;;;;;;;;;;5049033;28;19917;-53
2022/08/29 10:10:47;;;;;;;;;;;;;;;;;;5049312;28;19916;-52
2022/08/29 10:13:14;;;;;;;;;;;;;;;;;;5048738;28;19944;-52
2022/08/29 10:15:40;;;;;;;;;;;;;;;;;;5048569;28;19941;-55
2022/08/29 10:18:22;;;;;;;;;;;;;;;;;;5045820;28;19947;-55
2022/08/29 10:20:48;;;;;;;;;;;;;;;;;;5047363;28;19913;-49
2022/08/29 10:23:14;;;;;;;;;;;;;;;;;;5048846;28;19970;-52
2022/08/29 10:25:40;;;;;;;;;;;;;;;;;;5048803;28;19921;-54
2022/08/29 10:28:06;;;;;;;;;;;;;;;;;;5049180;28;20460;-51
2022/08/29 10:30:32;;;;;;;;;;;;;;;;;;5049194;28;20060;-55
2022/08/29 10:32:58;;;;;;;;;;;;;;;;;;5048244;28;20380;-55
2022/08/29 10:35:26;;;;;;;;;;;;;;;;;;5048413;28;19955;-52
2022/08/29 10:37:52;;;;;;;;;;;;;;;;;;5049318;28;19939;-66
2022/08/29 10:40:18;;;;;;;;;;;;;;;;;;5049698;28;19912;-62
2022/08/29 10:42:44;;;;;;;;;;;;;;;;;;5049462;28;19913;-65
2022/08/29 10:45:12;;;;;;;;;;;;;;;;;;5043590;28;20350;-66
2022/08/29 10:47:37;;;;;;;;;;;;;;;;;;5049767;28;19909;-66
2022/08/29 10:50:03;;;;;;;;;;;;;;;;;;5046232;28;19909;-67
2022/08/29 10:52:29;;;;;;;;;;;;;;;;;;5049424;28;19942;-67
2022/08/29 10:54:55;;;;;;;;;;;;;;;;;;5049888;28;20003;-67
2022/08/29 10:57:21;;;;;;;;;;;;;;;;;;5049576;28;19912;-68
2022/08/29 10:59:47;;;;;;;;;;;;;;;;;;5049953;28;19916;-67
2022/08/29 11:02:13;;;;;;;;;;;;;;;;;;5043032;28;20063;-68
2022/08/29 11:04:39;;;;;;;;;;;;;;;;;;5049824;28;19924;-67
2022/08/29 11:07:05;;;;;;;;;;;;;;;;;;5049463;28;19913;-67
2022/08/29 11:09:30;;;;;;;;;;;;;;;;;;5049646;28;20419;-67
2022/08/29 11:11:56;;;;;;;;;;;;;;;;;;5049728;28;19914;-67
2022/08/29 11:14:22;;;;;;;;;;;;;;;;;;5050053;28;19919;-67
2022/08/29 11:16:48;;;;;;;;;;;;;;;;;;5049406;28;19912;-67
2022/08/29 11:19:14;;;;;;;;;;;;;;;;;;5049923;28;19909;-67
2022/08/29 11:21:40;;;;;;;;;;;;;;;;;;5050222;28;19932;-68
2022/08/29 11:24:06;;;;;;;;;;;;;;;;;;5053485;28;19916;-65
2022/08/29 11:26:32;;;;;;;;;;;;;;;;;;5053657;28;20362;-67
2022/08/29 11:28:58;;;;;;;;;;;;;;;;;;5053530;28;19909;-68
2022/08/29 11:31:24;;;;;;;;;;;;;;;;;;5052980;28;19909;-69
2022/08/29 11:33:50;;;;;;;;;;;;;;;;;;5052934;28;19939;-67
2022/08/29 11:36:16;;;;;;;;;;;;;;;;;;5047087;28;20327;-66
2022/08/29 11:38:42;;;;;;;;;;;;;;;;;;5053543;28;19909;-67
2022/08/29 11:41:08;;;;;;;;;;;;;;;;;;5052986;28;19920;-67
2022/08/29 11:43:34;;;;;;;;;;;;;;;;;;5052820;28;19916;-68
2022/08/29 11:46:00;;;;;;;;;;;;;;;;;;5052553;28;19917;-68
2022/08/29 11:48:26;;;;;;;;;;;;;;;;;;5052533;28;19909;-67
2022/08/29 11:50:52;;;;;;;;;;;;;;;;;;5052782;28;19932;-66
2022/08/29 11:53:18;;;;;;;;;;;;;;;;;;5052310;28;20051;-67
2022/08/29 11:55:43;;;;;;;;;;;;;;;;;;5052443;28;20295;-67
2022/08/29 11:58:09;;;;;;;;;;;;;;;;;;5052711;28;19909;-67
2022/08/29 12:00:35;;;;;;;;;;;;;;;;;;5051964;28;20031;-65
2022/08/29 12:03:01;;;;;;;;;;;;;;;;;;5052658;28;19912;-67
2022/08/29 12:05:27;;;;;;;;;;;;;;;;;;5052615;28;20397;-66
2022/08/29 12:07:53;;;;;;;;;;;;;;;;;;5052688;28;19952;-68
2022/08/29 12:10:22;;;;;;;;;;;;;;;;;;5052202;28;20651;-67
2022/08/29 12:12:48;;;;;;;;;;;;;;;;;;5053251;28;19951;-67
2022/08/29 12:15:14;;;;;;;;;;;;;;;;;;5051931;28;19955;-67
2022/08/29 12:17:40;;;;;;;;;;;;;;;;;;5052063;28;20321;-66
2022/08/29 12:20:06;;;;;;;;;;;;;;;;;;5053192;28;19909;-68
2022/08/29 12:22:32;;;;;;;;;;;;;;;;;;5046405;28;19908;-67
2022/08/29 12:24:58;;;;;;;;;;;;;;;;;;5052595;28;20296;-67
2022/08/29 12:27:24;;;;;;;;;;;;;;;;;;5052968;28;19917;-67
2022/08/29 12:29:50;;;;;;;;;;;;;;;;;;5052270;28;19960;-67
2022/08/29 12:32:16;;;;;;;;;;;;;;;;;;5052786;28;19920;-65
2022/08/29 12:34:42;;;;;;;;;;;;;;;;;;5051780;28;19931;-66
2022/08/29 12:37:09;;;;;;;;;;;;;;;;;;5052344;28;19909;-67
2022/08/29 12:39:35;;;;;;;;;;;;;;;;;;5052722;28;19908;-66
2022/08/29 12:42:01;;;;;;;;;;;;;;;;;;5052654;28;19934;-68
2022/08/29 12:44:27;;;;;;;;;;;;;;;;;;5052245;28;19909;-65
2022/08/29 12:46:52;;;;;;;;;;;;;;;;;;5052832;28;20438;-67
2022/08/29 12:49:18;;;;;;;;;;;;;;;;;;5052209;28;20119;-66
2022/08/29 12:51:44;;;;;;;;;;;;;;;;;;5052691;28;19916;-67
2022/08/29 12:54:10;;;;;;;;;;;;;;;;;;5052054;28;20362;-66
2022/08/29 12:56:36;;;;;;;;;;;;;;;;;;5052361;28;19913;-67
2022/08/29 12:59:02;;;;;;;;;;;;;;;;;;5051874;28;20399;-64
2022/08/29 13:01:29;;;;;;;;;;;;;;;;;;5052290;28;19912;-67
2022/08/29 13:03:55;;;;;;;;;;;;;;;;;;5052188;28;19913;-67
2022/08/29 13:06:21;;;;;;;;;;;;;;;;;;5052529;28;20278;-67
2022/08/29 13:08:47;;;;;;;;;;;;;;;;;;5051968;28;20318;-67
2022/08/29 13:11:13;;;;;;;;;;;;;;;;;;5052394;28;19956;-65
2022/08/29 13:13:39;;;;;;;;;;;;;;;;;;5050045;28;19913;-66
2022/08/29 13:16:05;;;;;;;;;;;;;;;;;;5052053;28;20011;-66
2022/08/29 13:18:31;;;;;;;;;;;;;;;;;;5052199;28;20012;-67
2022/08/29 13:20:57;;;;;;;;;;;;;;;;;;5051666;28;19908;-67
2022/08/29 13:23:23;;;;;;;;;;;;;;;;;;5051500;28;19913;-66
2022/08/29 13:25:49;;;;;;;;;;;;;;;;;;5051724;28;19986;-66
2022/08/29 13:28:15;;;;;;;;;;;;;;;;;;5050800;28;19916;-67
2022/08/29 13:30:41;;;;;;;;;;;;;;;;;;5052062;28;19954;-67
2022/08/29 13:33:07;;;;;;;;;;;;;;;;;;5051615;28;19955;-68
2022/08/29 13:35:34;;;;;;;;;;;;;;;;;;5051492;28;19909;-67
2022/08/29 13:38:00;;;;;;;;;;;;;;;;;;5051736;28;19913;-65
2022/08/29 13:40:26;;;;;;;;;;;;;;;;;;5051356;28;19908;-67
2022/08/29 13:42:52;;;;;;;;;;;;;;;;;;5051139;28;19995;-66
2022/08/29 13:45:18;;;;;;;;;;;;;;;;;;5050804;28;19917;-65
2022/08/29 13:47:44;;;;;;;;;;;;;;;;;;5051404;28;19919;-68
2022/08/29 13:50:09;;;;;;;;;;;;;;;;;;5051382;28;19983;-67
2022/08/29 13:52:35;;;;;;;;;;;;;;;;;;5051036;28;19938;-67
2022/08/29 13:55:01;;;;;;;;;;;;;;;;;;5044393;28;19924;-67
2022/08/29 13:57:30;;;;;;;;;;;;;;;;;;5050542;28;20019;-66
2022/08/29 13:59:56;;;;;;;;;;;;;;;;;;5050932;28;20381;-65
2022/08/29 14:02:23;;;;;;;;;;;;;;;;;;5051224;28;19915;-65
2022/08/29 14:04:49;;;;;;;;;;;;;;;;;;5051153;28;19913;-66
2022/08/29 14:07:15;;;;;;;;;;;;;;;;;;5050868;28;19920;-68
2022/08/29 14:09:41;;;;;;;;;;;;;;;;;;5045223;28;19966;-68
2022/08/29 14:12:07;;;;;;;;;;;;;;;;;;5047053;28;20023;-66
2022/08/29 14:14:33;;;;;;;;;;;;;;;;;;5049421;28;20424;-67
2022/08/29 14:16:59;;;;;;;;;;;;;;;;;;5049733;28;19984;-66
2022/08/29 14:19:25;;;;;;;;;;;;;;;;;;5050542;28;19905;-67
2022/08/29 14:21:51;;;;;;;;;;;;;;;;;;5049309;28;19913;-65
2022/08/29 14:24:16;;;;;;;;;;;20.00;76.50;;;;;;5049550;28;19999;-65
2022/08/29 14:26:42;;;;;;;;;;;26.40;69.30;;;;;;5049101;28;20397;-67
2022/08/29 14:29:08;;;;;;;;;;;26.40;69.40;;;;;;5047503;28;19924;-65
2022/08/29 14:31:34;;;;;;;;;;;26.40;69.70;;;;;;5049738;28;19909;-67
2022/08/29 14:33:59;;;;;;;;;;;26.40;69.40;;;;;;5049799;28;20004;-67
2022/08/29 14:36:25;;;;;;;;;;;26.40;69.40;;;;;;5049586;28;20363;-65
2022/08/29 14:38:50;;;;;;;;;;;26.50;69.30;;;;;;5047349;28;19913;-65
2022/08/29 14:41:16;;;;;;;;;;;26.50;69.50;;;;;;5048731;28;20482;-66
2022/08/29 14:43:42;;;;;;;;;;;26.50;69.30;;;;;;5049412;28;19917;-67
2022/08/29 14:46:07;;;;;;;;;;;26.50;69.10;;;;;;5049760;28;19917;-65
2022/08/29 14:48:32;;;;;;;;;;;26.50;69.20;;;;;;5049434;28;19916;-67
2022/08/29 14:50:58;;;;;;;;;;;26.50;69.30;;;;;;5049854;28;20019;-66
2022/08/29 14:53:23;;;;;;;;;;;26.50;68.90;;;;;;5048866;28;19916;-66
2022/08/29 14:55:49;;;;;;;;;;;26.60;69.50;;;;;;5048787;28;19920;-65
2022/08/29 14:58:14;;;;;;;;;;;26.60;69.20;;;;;;5051253;28;19955;-68
2022/08/29 15:00:40;;;;;;;;;;;26.60;69.20;;;;;;5045547;28;19940;-67
2022/08/29 15:03:06;;;;;;;;;;;26.60;68.50;;;;;;5052547;28;20017;-65